sensor_id;sensor_type;location;lat;lon;timestamp;P1;durP1;ratioP1;P2;durP2;ratioP2
9783;SDS011;4931;44.874;-1.092;2023-03-01T00:01:47;32.70;;;20.85;;
9783;SDS011;4931;44.874;-1.092;2023-03-01T00:04:13;33.03;;;19.08;;
9783;SDS011;4931;44.874;-1.092;2023-03-01T00:06:39;31.27;;;18.85;;
9783;SDS011;4931;44.874;-1.092;2023-03-01T00:09:05;32.90;;;18.15;;
9783;SDS011;4931;44.874;-1.092;2023-03-01T00:11:31;36.40;;;19.38;;
9783;SDS011;4931;44.874;-1.092;2023-03-01T00:14:01;40.30;;;21.83;;
9783;SDS011;4931;44.874;-1.092;2023-03-01T00:16:31;44.55;;;24.77;;
9783;SDS011;4931;44.874;-1.092;2023-03-01T00:18:59;46.05;;;24.65;;
9783;SDS011;4931;44.874;-1.092;2023-03-01T00:21:25;39.25;;;22.98;;
9783;SDS011;4931;44.874;-1.092;2023-03-01T00:23:51;38.08;;;21.33;;
9783;SDS011;4931;44.874;-1.092;2023-03-01T00:26:17;41.80;;;22.33;;
9783;SDS011;4931;44.874;-1.092;2023-03-01T00:28:44;40.60;;;22.38;;
9783;SDS011;4931;44.874;-1.092;2023-03-01T00:31:12;40.78;;;21.42;;
9783;SDS011;4931;44.874;-1.092;2023-03-01T00:33:40;37.42;;;21.50;;
9783;SDS011;4931;44.874;-1.092;2023-03-01T00:36:06;34.47;;;19.80;;
9783;SDS011;4931;44.874;-1.092;2023-03-01T00:38:38;33.47;;;19.90;;
9783;SDS011;4931;44.874;-1.092;2023-03-01T00:41:06;25.23;;;14.27;;
9783;SDS011;4931;44.874;-1.092;2023-03-01T00:43:34;21.02;;;11.88;;
9783;SDS011;4931;44.874;-1.092;2023-03-01T00:46:05;22.90;;;12.52;;
9783;SDS011;4931;44.874;-1.092;2023-03-01T00:48:33;25.77;;;13.30;;
9783;SDS011;4931;44.874;-1.092;2023-03-01T00:51:09;30.50;;;16.13;;
9783;SDS011;4931;44.874;-1.092;2023-03-01T00:53:39;29.65;;;16.20;;
9783;SDS011;4931;44.874;-1.092;2023-03-01T00:56:06;22.05;;;11.55;;
9783;SDS011;4931;44.874;-1.092;2023-03-01T00:58:33;22.70;;;13.18;;
9783;SDS011;4931;44.874;-1.092;2023-03-01T01:00:59;20.20;;;11.32;;
9783;SDS011;4931;44.874;-1.092;2023-03-01T01:03:25;18.13;;;11.50;;
9783;SDS011;4931;44.874;-1.092;2023-03-01T01:05:51;33.53;;;17.10;;
9783;SDS011;4931;44.874;-1.092;2023-03-01T01:08:18;35.30;;;17.50;;
9783;SDS011;4931;44.874;-1.092;2023-03-01T01:10:45;42.63;;;20.83;;
9783;SDS011;4931;44.874;-1.092;2023-03-01T01:13:12;43.80;;;21.38;;
9783;SDS011;4931;44.874;-1.092;2023-03-01T01:15:38;46.72;;;22.77;;
9783;SDS011;4931;44.874;-1.092;2023-03-01T01:18:04;44.00;;;21.60;;
9783;SDS011;4931;44.874;-1.092;2023-03-01T01:20:29;43.63;;;21.40;;
9783;SDS011;4931;44.874;-1.092;2023-03-01T01:22:55;39.85;;;19.92;;
9783;SDS011;4931;44.874;-1.092;2023-03-01T01:25:20;37.92;;;18.67;;
9783;SDS011;4931;44.874;-1.092;2023-03-01T01:27:46;33.45;;;17.45;;
9783;SDS011;4931;44.874;-1.092;2023-03-01T01:30:11;32.58;;;16.60;;
9783;SDS011;4931;44.874;-1.092;2023-03-01T01:32:38;31.67;;;17.73;;
9783;SDS011;4931;44.874;-1.092;2023-03-01T01:35:04;32.75;;;16.50;;
9783;SDS011;4931;44.874;-1.092;2023-03-01T01:37:30;25.13;;;14.98;;
9783;SDS011;4931;44.874;-1.092;2023-03-01T01:39:58;29.75;;;15.90;;
9783;SDS011;4931;44.874;-1.092;2023-03-01T01:42:24;30.20;;;16.02;;
9783;SDS011;4931;44.874;-1.092;2023-03-01T01:48:03;27.73;;;15.95;;
9783;SDS011;4931;44.874;-1.092;2023-03-01T01:50:32;29.08;;;16.17;;
9783;SDS011;4931;44.874;-1.092;2023-03-01T01:53:08;29.35;;;14.88;;
9783;SDS011;4931;44.874;-1.092;2023-03-01T01:55:39;26.45;;;14.10;;
9783;SDS011;4931;44.874;-1.092;2023-03-01T01:58:09;25.85;;;14.15;;
9783;SDS011;4931;44.874;-1.092;2023-03-01T02:00:37;23.02;;;12.80;;
9783;SDS011;4931;44.874;-1.092;2023-03-01T02:03:11;21.85;;;12.55;;
9783;SDS011;4931;44.874;-1.092;2023-03-01T02:08:37;21.45;;;11.45;;
9783;SDS011;4931;44.874;-1.092;2023-03-01T02:11:06;19.95;;;10.35;;
9783;SDS011;4931;44.874;-1.092;2023-03-01T02:13:33;22.15;;;10.68;;
9783;SDS011;4931;44.874;-1.092;2023-03-01T02:16:02;17.20;;;10.05;;
9783;SDS011;4931;44.874;-1.092;2023-03-01T02:18:29;19.23;;;10.05;;
9783;SDS011;4931;44.874;-1.092;2023-03-01T02:21:01;19.42;;;10.43;;
9783;SDS011;4931;44.874;-1.092;2023-03-01T02:23:30;20.05;;;10.48;;
9783;SDS011;4931;44.874;-1.092;2023-03-01T02:28:43;18.63;;;10.15;;
9783;SDS011;4931;44.874;-1.092;2023-03-01T02:31:10;16.90;;;9.50;;
9783;SDS011;4931;44.874;-1.092;2023-03-01T02:33:59;18.30;;;10.45;;
9783;SDS011;4931;44.874;-1.092;2023-03-01T02:36:30;19.10;;;9.52;;
9783;SDS011;4931;44.874;-1.092;2023-03-01T02:39:02;19.17;;;9.75;;
9783;SDS011;4931;44.874;-1.092;2023-03-01T02:41:31;17.27;;;9.85;;
9783;SDS011;4931;44.874;-1.092;2023-03-01T02:44:00;16.20;;;9.25;;
9783;SDS011;4931;44.874;-1.092;2023-03-01T02:46:26;14.63;;;9.20;;
9783;SDS011;4931;44.874;-1.092;2023-03-01T02:48:52;15.48;;;9.25;;
9783;SDS011;4931;44.874;-1.092;2023-03-01T02:53:52;17.50;;;9.70;;
9783;SDS011;4931;44.874;-1.092;2023-03-01T02:56:20;25.15;;;13.23;;
9783;SDS011;4931;44.874;-1.092;2023-03-01T02:58:46;31.02;;;14.75;;
9783;SDS011;4931;44.874;-1.092;2023-03-01T03:01:16;23.67;;;11.27;;
9783;SDS011;4931;44.874;-1.092;2023-03-01T03:03:42;19.45;;;9.85;;
9783;SDS011;4931;44.874;-1.092;2023-03-01T03:06:07;17.42;;;9.27;;
9783;SDS011;4931;44.874;-1.092;2023-03-01T03:08:33;16.35;;;10.00;;
9783;SDS011;4931;44.874;-1.092;2023-03-01T03:10:58;17.83;;;9.13;;
9783;SDS011;4931;44.874;-1.092;2023-03-01T03:13:24;17.45;;;9.15;;
9783;SDS011;4931;44.874;-1.092;2023-03-01T03:15:56;14.00;;;9.10;;
9783;SDS011;4931;44.874;-1.092;2023-03-01T03:18:23;17.73;;;9.82;;
9783;SDS011;4931;44.874;-1.092;2023-03-01T03:20:51;13.55;;;8.90;;
9783;SDS011;4931;44.874;-1.092;2023-03-01T03:23:21;14.85;;;8.98;;
9783;SDS011;4931;44.874;-1.092;2023-03-01T03:25:50;17.15;;;9.32;;
9783;SDS011;4931;44.874;-1.092;2023-03-01T03:28:16;18.55;;;8.75;;
9783;SDS011;4931;44.874;-1.092;2023-03-01T03:30:42;17.55;;;9.45;;
9783;SDS011;4931;44.874;-1.092;2023-03-01T03:33:09;15.85;;;8.77;;
9783;SDS011;4931;44.874;-1.092;2023-03-01T03:35:54;16.52;;;8.75;;
9783;SDS011;4931;44.874;-1.092;2023-03-01T03:38:20;15.68;;;9.20;;
9783;SDS011;4931;44.874;-1.092;2023-03-01T03:40:48;18.67;;;9.70;;
9783;SDS011;4931;44.874;-1.092;2023-03-01T03:45:44;16.17;;;8.77;;
9783;SDS011;4931;44.874;-1.092;2023-03-01T03:48:10;16.75;;;8.90;;
9783;SDS011;4931;44.874;-1.092;2023-03-01T03:50:36;15.75;;;9.02;;
9783;SDS011;4931;44.874;-1.092;2023-03-01T03:53:04;16.02;;;8.80;;
9783;SDS011;4931;44.874;-1.092;2023-03-01T03:55:31;13.98;;;8.40;;
9783;SDS011;4931;44.874;-1.092;2023-03-01T03:57:58;13.15;;;8.65;;
9783;SDS011;4931;44.874;-1.092;2023-03-01T04:00:32;14.63;;;8.25;;
9783;SDS011;4931;44.874;-1.092;2023-03-01T04:03:01;19.52;;;8.73;;
9783;SDS011;4931;44.874;-1.092;2023-03-01T04:05:27;15.48;;;8.73;;
9783;SDS011;4931;44.874;-1.092;2023-03-01T04:07:54;16.58;;;9.25;;
9783;SDS011;4931;44.874;-1.092;2023-03-01T04:10:38;16.05;;;9.57;;
9783;SDS011;4931;44.874;-1.092;2023-03-01T04:13:08;15.23;;;9.20;;
9783;SDS011;4931;44.874;-1.092;2023-03-01T04:15:36;16.98;;;9.63;;
9783;SDS011;4931;44.874;-1.092;2023-03-01T04:18:02;17.98;;;9.80;;
9783;SDS011;4931;44.874;-1.092;2023-03-01T04:20:29;16.05;;;9.07;;
9783;SDS011;4931;44.874;-1.092;2023-03-01T04:22:57;15.77;;;9.27;;
9783;SDS011;4931;44.874;-1.092;2023-03-01T04:28:10;17.85;;;12.60;;
9783;SDS011;4931;44.874;-1.092;2023-03-01T04:30:36;16.95;;;10.10;;
9783;SDS011;4931;44.874;-1.092;2023-03-01T04:33:03;15.48;;;9.02;;
9783;SDS011;4931;44.874;-1.092;2023-03-01T04:35:34;14.35;;;9.00;;
9783;SDS011;4931;44.874;-1.092;2023-03-01T04:38:00;16.33;;;9.07;;
9783;SDS011;4931;44.874;-1.092;2023-03-01T04:40:26;18.23;;;9.32;;
9783;SDS011;4931;44.874;-1.092;2023-03-01T04:42:52;15.13;;;8.88;;
9783;SDS011;4931;44.874;-1.092;2023-03-01T04:45:18;14.80;;;8.55;;
9783;SDS011;4931;44.874;-1.092;2023-03-01T04:47:45;14.80;;;9.45;;
9783;SDS011;4931;44.874;-1.092;2023-03-01T04:50:12;14.30;;;8.50;;
9783;SDS011;4931;44.874;-1.092;2023-03-01T04:52:40;15.90;;;9.45;;
9783;SDS011;4931;44.874;-1.092;2023-03-01T04:55:07;15.70;;;8.75;;
9783;SDS011;4931;44.874;-1.092;2023-03-01T04:57:33;13.70;;;8.45;;
9783;SDS011;4931;44.874;-1.092;2023-03-01T04:59:59;15.45;;;9.43;;
9783;SDS011;4931;44.874;-1.092;2023-03-01T05:02:25;16.83;;;9.35;;
9783;SDS011;4931;44.874;-1.092;2023-03-01T05:04:50;15.20;;;9.52;;
9783;SDS011;4931;44.874;-1.092;2023-03-01T05:07:16;15.85;;;9.02;;
9783;SDS011;4931;44.874;-1.092;2023-03-01T05:09:47;16.25;;;8.90;;
9783;SDS011;4931;44.874;-1.092;2023-03-01T05:12:13;13.20;;;8.77;;
9783;SDS011;4931;44.874;-1.092;2023-03-01T05:14:39;14.90;;;8.60;;
9783;SDS011;4931;44.874;-1.092;2023-03-01T05:17:05;14.65;;;9.32;;
9783;SDS011;4931;44.874;-1.092;2023-03-01T05:19:31;16.08;;;9.80;;
9783;SDS011;4931;44.874;-1.092;2023-03-01T05:21:57;15.65;;;9.25;;
9783;SDS011;4931;44.874;-1.092;2023-03-01T05:24:27;14.13;;;8.65;;
9783;SDS011;4931;44.874;-1.092;2023-03-01T05:26:53;12.98;;;8.90;;
9783;SDS011;4931;44.874;-1.092;2023-03-01T05:29:19;17.70;;;8.85;;
9783;SDS011;4931;44.874;-1.092;2023-03-01T05:34:18;14.82;;;9.35;;
9783;SDS011;4931;44.874;-1.092;2023-03-01T05:36:48;13.85;;;8.77;;
9783;SDS011;4931;44.874;-1.092;2023-03-01T05:39:18;15.98;;;9.50;;
9783;SDS011;4931;44.874;-1.092;2023-03-01T05:41:57;16.60;;;9.90;;
9783;SDS011;4931;44.874;-1.092;2023-03-01T05:44:24;15.68;;;9.77;;
9783;SDS011;4931;44.874;-1.092;2023-03-01T05:46:51;16.25;;;8.98;;
9783;SDS011;4931;44.874;-1.092;2023-03-01T05:49:17;15.45;;;9.30;;
9783;SDS011;4931;44.874;-1.092;2023-03-01T05:51:43;18.17;;;10.00;;
9783;SDS011;4931;44.874;-1.092;2023-03-01T05:54:13;15.55;;;9.45;;
9783;SDS011;4931;44.874;-1.092;2023-03-01T05:56:39;14.32;;;9.57;;
9783;SDS011;4931;44.874;-1.092;2023-03-01T05:59:05;18.48;;;9.65;;
9783;SDS011;4931;44.874;-1.092;2023-03-01T06:01:31;13.82;;;9.13;;
9783;SDS011;4931;44.874;-1.092;2023-03-01T06:03:58;14.95;;;9.75;;
9783;SDS011;4931;44.874;-1.092;2023-03-01T06:06:24;16.10;;;10.60;;
9783;SDS011;4931;44.874;-1.092;2023-03-01T06:08:49;16.13;;;10.13;;
9783;SDS011;4931;44.874;-1.092;2023-03-01T06:11:16;19.02;;;10.55;;
9783;SDS011;4931;44.874;-1.092;2023-03-01T06:13:42;27.25;;;13.38;;
9783;SDS011;4931;44.874;-1.092;2023-03-01T06:16:08;32.53;;;15.77;;
9783;SDS011;4931;44.874;-1.092;2023-03-01T06:18:35;40.95;;;21.13;;
9783;SDS011;4931;44.874;-1.092;2023-03-01T06:21:01;47.67;;;23.75;;
9783;SDS011;4931;44.874;-1.092;2023-03-01T06:23:27;38.42;;;20.08;;
9783;SDS011;4931;44.874;-1.092;2023-03-01T06:25:52;32.00;;;16.63;;
9783;SDS011;4931;44.874;-1.092;2023-03-01T06:28:18;33.22;;;17.27;;
9783;SDS011;4931;44.874;-1.092;2023-03-01T06:30:44;32.75;;;16.35;;
9783;SDS011;4931;44.874;-1.092;2023-03-01T06:33:09;25.92;;;14.88;;
9783;SDS011;4931;44.874;-1.092;2023-03-01T06:35:35;34.95;;;17.38;;
9783;SDS011;4931;44.874;-1.092;2023-03-01T06:38:01;37.60;;;18.88;;
9783;SDS011;4931;44.874;-1.092;2023-03-01T06:40:28;29.48;;;15.80;;
9783;SDS011;4931;44.874;-1.092;2023-03-01T06:42:53;19.63;;;11.27;;
9783;SDS011;4931;44.874;-1.092;2023-03-01T06:45:20;24.92;;;11.50;;
9783;SDS011;4931;44.874;-1.092;2023-03-01T06:47:46;28.75;;;13.48;;
9783;SDS011;4931;44.874;-1.092;2023-03-01T06:50:12;60.13;;;26.42;;
9783;SDS011;4931;44.874;-1.092;2023-03-01T06:52:39;67.30;;;31.25;;
9783;SDS011;4931;44.874;-1.092;2023-03-01T06:55:05;36.80;;;18.83;;
9783;SDS011;4931;44.874;-1.092;2023-03-01T06:57:31;38.75;;;18.52;;
9783;SDS011;4931;44.874;-1.092;2023-03-01T06:59:57;32.97;;;15.93;;
9783;SDS011;4931;44.874;-1.092;2023-03-01T07:02:23;31.02;;;15.40;;
9783;SDS011;4931;44.874;-1.092;2023-03-01T07:04:49;31.92;;;15.40;;
9783;SDS011;4931;44.874;-1.092;2023-03-01T07:07:15;33.72;;;16.27;;
9783;SDS011;4931;44.874;-1.092;2023-03-01T07:09:43;34.67;;;15.25;;
9783;SDS011;4931;44.874;-1.092;2023-03-01T07:12:12;50.83;;;22.27;;
9783;SDS011;4931;44.874;-1.092;2023-03-01T07:14:37;59.75;;;26.15;;
9783;SDS011;4931;44.874;-1.092;2023-03-01T07:17:03;38.45;;;19.05;;
9783;SDS011;4931;44.874;-1.092;2023-03-01T07:19:28;24.65;;;13.98;;
9783;SDS011;4931;44.874;-1.092;2023-03-01T07:21:54;22.55;;;12.73;;
9783;SDS011;4931;44.874;-1.092;2023-03-01T07:24:21;24.55;;;14.13;;
9783;SDS011;4931;44.874;-1.092;2023-03-01T07:26:50;31.63;;;14.77;;
9783;SDS011;4931;44.874;-1.092;2023-03-01T07:29:17;29.15;;;14.30;;
9783;SDS011;4931;44.874;-1.092;2023-03-01T07:31:43;32.00;;;14.70;;
9783;SDS011;4931;44.874;-1.092;2023-03-01T07:34:09;32.35;;;18.42;;
9783;SDS011;4931;44.874;-1.092;2023-03-01T07:36:35;45.38;;;23.42;;
9783;SDS011;4931;44.874;-1.092;2023-03-01T07:39:01;32.75;;;16.77;;
9783;SDS011;4931;44.874;-1.092;2023-03-01T07:41:28;27.73;;;13.65;;
9783;SDS011;4931;44.874;-1.092;2023-03-01T07:43:54;26.23;;;14.88;;
9783;SDS011;4931;44.874;-1.092;2023-03-01T07:46:20;23.77;;;13.38;;
9783;SDS011;4931;44.874;-1.092;2023-03-01T07:48:45;27.15;;;14.55;;
9783;SDS011;4931;44.874;-1.092;2023-03-01T07:51:11;23.45;;;14.32;;
9783;SDS011;4931;44.874;-1.092;2023-03-01T07:53:36;29.33;;;16.27;;
9783;SDS011;4931;44.874;-1.092;2023-03-01T07:56:06;26.08;;;15.80;;
9783;SDS011;4931;44.874;-1.092;2023-03-01T07:58:35;26.50;;;15.68;;
9783;SDS011;4931;44.874;-1.092;2023-03-01T08:01:05;25.58;;;13.65;;
9783;SDS011;4931;44.874;-1.092;2023-03-01T08:03:32;24.30;;;13.82;;
9783;SDS011;4931;44.874;-1.092;2023-03-01T08:06:02;22.27;;;13.48;;
9783;SDS011;4931;44.874;-1.092;2023-03-01T08:08:28;21.27;;;12.20;;
9783;SDS011;4931;44.874;-1.092;2023-03-01T08:11:00;24.20;;;13.88;;
9783;SDS011;4931;44.874;-1.092;2023-03-01T08:13:28;21.73;;;13.15;;
9783;SDS011;4931;44.874;-1.092;2023-03-01T08:15:54;20.85;;;13.15;;
9783;SDS011;4931;44.874;-1.092;2023-03-01T08:18:20;21.45;;;13.23;;
9783;SDS011;4931;44.874;-1.092;2023-03-01T08:20:46;22.83;;;13.77;;
9783;SDS011;4931;44.874;-1.092;2023-03-01T08:23:12;21.58;;;13.32;;
9783;SDS011;4931;44.874;-1.092;2023-03-01T08:25:38;22.30;;;14.35;;
9783;SDS011;4931;44.874;-1.092;2023-03-01T08:28:04;25.25;;;14.63;;
9783;SDS011;4931;44.874;-1.092;2023-03-01T08:30:30;23.13;;;14.85;;
9783;SDS011;4931;44.874;-1.092;2023-03-01T08:32:55;24.20;;;14.27;;
9783;SDS011;4931;44.874;-1.092;2023-03-01T08:35:21;28.95;;;17.00;;
9783;SDS011;4931;44.874;-1.092;2023-03-01T08:37:47;26.00;;;14.95;;
9783;SDS011;4931;44.874;-1.092;2023-03-01T08:40:13;23.45;;;14.50;;
9783;SDS011;4931;44.874;-1.092;2023-03-01T08:42:40;27.15;;;17.48;;
9783;SDS011;4931;44.874;-1.092;2023-03-01T08:45:07;32.95;;;18.63;;
9783;SDS011;4931;44.874;-1.092;2023-03-01T08:47:34;20.45;;;13.23;;
9783;SDS011;4931;44.874;-1.092;2023-03-01T08:50:00;21.15;;;13.60;;
9783;SDS011;4931;44.874;-1.092;2023-03-01T08:52:25;31.75;;;19.65;;
9783;SDS011;4931;44.874;-1.092;2023-03-01T08:54:52;24.80;;;16.60;;
9783;SDS011;4931;44.874;-1.092;2023-03-01T08:57:17;28.48;;;18.58;;
9783;SDS011;4931;44.874;-1.092;2023-03-01T08:59:43;20.00;;;14.57;;
9783;SDS011;4931;44.874;-1.092;2023-03-01T09:02:13;22.33;;;13.98;;
9783;SDS011;4931;44.874;-1.092;2023-03-01T09:04:40;21.90;;;14.80;;
9783;SDS011;4931;44.874;-1.092;2023-03-01T09:07:07;21.95;;;13.93;;
9783;SDS011;4931;44.874;-1.092;2023-03-01T09:09:32;21.33;;;13.23;;
9783;SDS011;4931;44.874;-1.092;2023-03-01T09:11:58;21.95;;;14.93;;
9783;SDS011;4931;44.874;-1.092;2023-03-01T09:14:24;21.08;;;14.02;;
9783;SDS011;4931;44.874;-1.092;2023-03-01T09:16:49;16.70;;;12.43;;
9783;SDS011;4931;44.874;-1.092;2023-03-01T09:19:16;20.80;;;12.40;;
9783;SDS011;4931;44.874;-1.092;2023-03-01T09:21:42;20.98;;;13.57;;
9783;SDS011;4931;44.874;-1.092;2023-03-01T09:24:18;15.80;;;11.18;;
9783;SDS011;4931;44.874;-1.092;2023-03-01T09:26:46;17.95;;;11.98;;
9783;SDS011;4931;44.874;-1.092;2023-03-01T09:29:12;21.10;;;14.50;;
9783;SDS011;4931;44.874;-1.092;2023-03-01T09:31:39;18.67;;;11.65;;
9783;SDS011;4931;44.874;-1.092;2023-03-01T09:34:06;19.70;;;12.73;;
9783;SDS011;4931;44.874;-1.092;2023-03-01T09:36:32;26.88;;;15.68;;
9783;SDS011;4931;44.874;-1.092;2023-03-01T09:39:02;16.25;;;11.20;;
9783;SDS011;4931;44.874;-1.092;2023-03-01T09:43:59;19.17;;;10.85;;
9783;SDS011;4931;44.874;-1.092;2023-03-01T09:46:38;16.63;;;11.10;;
9783;SDS011;4931;44.874;-1.092;2023-03-01T09:49:25;15.82;;;10.57;;
9783;SDS011;4931;44.874;-1.092;2023-03-01T09:51:54;17.70;;;10.93;;
9783;SDS011;4931;44.874;-1.092;2023-03-01T09:54:48;16.65;;;11.43;;
9783;SDS011;4931;44.874;-1.092;2023-03-01T09:57:46;17.27;;;11.13;;
9783;SDS011;4931;44.874;-1.092;2023-03-01T10:00:32;15.85;;;10.82;;
9783;SDS011;4931;44.874;-1.092;2023-03-01T10:03:21;16.40;;;10.90;;
9783;SDS011;4931;44.874;-1.092;2023-03-01T10:06:12;15.35;;;11.13;;
9783;SDS011;4931;44.874;-1.092;2023-03-01T10:08:53;15.93;;;10.27;;
9783;SDS011;4931;44.874;-1.092;2023-03-01T10:11:33;16.17;;;11.07;;
9783;SDS011;4931;44.874;-1.092;2023-03-01T10:14:16;16.98;;;11.00;;
9783;SDS011;4931;44.874;-1.092;2023-03-01T10:16:59;16.98;;;9.15;;
9783;SDS011;4931;44.874;-1.092;2023-03-01T10:19:45;17.67;;;11.90;;
9783;SDS011;4931;44.874;-1.092;2023-03-01T10:22:16;15.68;;;11.15;;
9783;SDS011;4931;44.874;-1.092;2023-03-01T10:24:49;18.67;;;11.80;;
9783;SDS011;4931;44.874;-1.092;2023-03-01T10:27:24;16.65;;;10.65;;
9783;SDS011;4931;44.874;-1.092;2023-03-01T10:32:20;17.10;;;11.23;;
9783;SDS011;4931;44.874;-1.092;2023-03-01T10:34:47;17.52;;;10.68;;
9783;SDS011;4931;44.874;-1.092;2023-03-01T10:37:19;19.15;;;13.32;;
9783;SDS011;4931;44.874;-1.092;2023-03-01T10:40:24;18.05;;;11.13;;
9783;SDS011;4931;44.874;-1.092;2023-03-01T10:42:47;14.77;;;10.70;;
9783;SDS011;4931;44.874;-1.092;2023-03-01T10:45:30;21.63;;;11.40;;
9783;SDS011;4931;44.874;-1.092;2023-03-01T10:50:39;13.93;;;10.18;;
9783;SDS011;4931;44.874;-1.092;2023-03-01T10:53:51;14.75;;;10.25;;
9783;SDS011;4931;44.874;-1.092;2023-03-01T10:58:24;14.68;;;10.30;;
9783;SDS011;4931;44.874;-1.092;2023-03-01T11:00:51;13.32;;;10.38;;
9783;SDS011;4931;44.874;-1.092;2023-03-01T11:03:26;13.38;;;9.65;;
9783;SDS011;4931;44.874;-1.092;2023-03-01T11:06:00;14.77;;;9.65;;
9783;SDS011;4931;44.874;-1.092;2023-03-01T11:08:33;18.02;;;10.40;;
9783;SDS011;4931;44.874;-1.092;2023-03-01T11:11:13;16.98;;;9.80;;
9783;SDS011;4931;44.874;-1.092;2023-03-01T11:16:59;13.10;;;9.55;;
9783;SDS011;4931;44.874;-1.092;2023-03-01T11:19:37;20.63;;;11.63;;
9783;SDS011;4931;44.874;-1.092;2023-03-01T11:27:15;13.52;;;10.52;;
9783;SDS011;4931;44.874;-1.092;2023-03-01T11:35:41;14.65;;;10.48;;
9783;SDS011;4931;44.874;-1.092;2023-03-01T11:38:26;13.93;;;10.30;;
9783;SDS011;4931;44.874;-1.092;2023-03-01T11:41:01;14.48;;;10.63;;
9783;SDS011;4931;44.874;-1.092;2023-03-01T11:56:34;14.77;;;9.80;;
9783;SDS011;4931;44.874;-1.092;2023-03-01T12:04:33;14.70;;;9.65;;
9783;SDS011;4931;44.874;-1.092;2023-03-01T12:07:11;13.30;;;9.40;;
9783;SDS011;4931;44.874;-1.092;2023-03-01T12:12:57;12.52;;;9.38;;
9783;SDS011;4931;44.874;-1.092;2023-03-01T12:15:11;11.98;;;9.07;;
9783;SDS011;4931;44.874;-1.092;2023-03-01T12:17:52;11.47;;;8.33;;
9783;SDS011;4931;44.874;-1.092;2023-03-01T12:21:28;11.63;;;8.27;;
9783;SDS011;4931;44.874;-1.092;2023-03-01T12:23:54;11.30;;;8.52;;
9783;SDS011;4931;44.874;-1.092;2023-03-01T12:26:30;13.68;;;8.80;;
9783;SDS011;4931;44.874;-1.092;2023-03-01T12:29:12;12.85;;;8.75;;
9783;SDS011;4931;44.874;-1.092;2023-03-01T12:32:01;14.43;;;8.82;;
9783;SDS011;4931;44.874;-1.092;2023-03-01T12:37:22;11.98;;;8.55;;
9783;SDS011;4931;44.874;-1.092;2023-03-01T12:51:06;12.40;;;9.18;;
9783;SDS011;4931;44.874;-1.092;2023-03-01T12:53:43;15.45;;;9.35;;
9783;SDS011;4931;44.874;-1.092;2023-03-01T12:56:24;15.13;;;10.02;;
9783;SDS011;4931;44.874;-1.092;2023-03-01T12:59:11;16.33;;;10.57;;
9783;SDS011;4931;44.874;-1.092;2023-03-01T13:04:53;16.70;;;11.10;;
9783;SDS011;4931;44.874;-1.092;2023-03-01T13:10:50;19.67;;;11.70;;
9783;SDS011;4931;44.874;-1.092;2023-03-01T13:13:22;16.02;;;11.70;;
9783;SDS011;4931;44.874;-1.092;2023-03-01T13:15:52;16.23;;;12.00;;
9783;SDS011;4931;44.874;-1.092;2023-03-01T13:20:46;17.60;;;12.35;;
9783;SDS011;4931;44.874;-1.092;2023-03-01T13:28:46;19.42;;;14.00;;
9783;SDS011;4931;44.874;-1.092;2023-03-01T13:36:55;21.30;;;13.95;;
9783;SDS011;4931;44.874;-1.092;2023-03-01T13:39:05;20.80;;;13.93;;
9783;SDS011;4931;44.874;-1.092;2023-03-01T13:41:52;22.05;;;14.52;;
9783;SDS011;4931;44.874;-1.092;2023-03-01T13:44:21;24.48;;;15.38;;
9783;SDS011;4931;44.874;-1.092;2023-03-01T13:46:53;23.63;;;14.65;;
9783;SDS011;4931;44.874;-1.092;2023-03-01T13:49:25;24.85;;;16.48;;
9783;SDS011;4931;44.874;-1.092;2023-03-01T13:51:53;22.83;;;15.53;;
9783;SDS011;4931;44.874;-1.092;2023-03-01T13:54:52;25.88;;;16.20;;
9783;SDS011;4931;44.874;-1.092;2023-03-01T13:57:12;26.08;;;16.73;;
9783;SDS011;4931;44.874;-1.092;2023-03-01T13:59:49;23.58;;;16.42;;
9783;SDS011;4931;44.874;-1.092;2023-03-01T14:02:15;30.02;;;16.00;;
9783;SDS011;4931;44.874;-1.092;2023-03-01T14:04:41;27.40;;;17.50;;
9783;SDS011;4931;44.874;-1.092;2023-03-01T14:07:11;27.55;;;16.27;;
9783;SDS011;4931;44.874;-1.092;2023-03-01T14:09:40;24.92;;;16.25;;
9783;SDS011;4931;44.874;-1.092;2023-03-01T14:20:37;24.73;;;16.08;;
9783;SDS011;4931;44.874;-1.092;2023-03-01T14:22:57;23.13;;;15.80;;
9783;SDS011;4931;44.874;-1.092;2023-03-01T14:25:26;23.73;;;15.50;;
9783;SDS011;4931;44.874;-1.092;2023-03-01T14:28:16;25.00;;;16.40;;
9783;SDS011;4931;44.874;-1.092;2023-03-01T14:30:46;24.95;;;16.38;;
9783;SDS011;4931;44.874;-1.092;2023-03-01T14:33:27;24.48;;;16.40;;
9783;SDS011;4931;44.874;-1.092;2023-03-01T14:35:56;23.85;;;16.35;;
9783;SDS011;4931;44.874;-1.092;2023-03-01T14:38:22;23.83;;;15.70;;
9783;SDS011;4931;44.874;-1.092;2023-03-01T14:41:06;23.85;;;15.93;;
9783;SDS011;4931;44.874;-1.092;2023-03-01T14:43:34;24.42;;;15.68;;
9783;SDS011;4931;44.874;-1.092;2023-03-01T14:46:02;26.65;;;16.05;;
9783;SDS011;4931;44.874;-1.092;2023-03-01T14:48:28;24.02;;;15.98;;
9783;SDS011;4931;44.874;-1.092;2023-03-01T14:50:55;25.88;;;15.70;;
9783;SDS011;4931;44.874;-1.092;2023-03-01T14:53:24;24.33;;;15.80;;
9783;SDS011;4931;44.874;-1.092;2023-03-01T14:55:56;23.90;;;14.82;;
9783;SDS011;4931;44.874;-1.092;2023-03-01T14:58:31;25.52;;;15.32;;
9783;SDS011;4931;44.874;-1.092;2023-03-01T15:00:59;27.25;;;16.50;;
9783;SDS011;4931;44.874;-1.092;2023-03-01T15:06:03;28.38;;;16.70;;
9783;SDS011;4931;44.874;-1.092;2023-03-01T15:08:30;27.90;;;15.75;;
9783;SDS011;4931;44.874;-1.092;2023-03-01T15:11:04;26.45;;;15.98;;
9783;SDS011;4931;44.874;-1.092;2023-03-01T15:13:41;29.80;;;16.80;;
9783;SDS011;4931;44.874;-1.092;2023-03-01T15:18:45;23.42;;;16.08;;
9783;SDS011;4931;44.874;-1.092;2023-03-01T15:21:24;24.10;;;15.65;;
9783;SDS011;4931;44.874;-1.092;2023-03-01T15:23:54;28.70;;;16.35;;
9783;SDS011;4931;44.874;-1.092;2023-03-01T15:26:23;27.55;;;16.65;;
9783;SDS011;4931;44.874;-1.092;2023-03-01T15:28:52;25.98;;;15.77;;
9783;SDS011;4931;44.874;-1.092;2023-03-01T15:31:24;30.33;;;16.67;;
9783;SDS011;4931;44.874;-1.092;2023-03-01T15:33:51;29.20;;;16.63;;
9783;SDS011;4931;44.874;-1.092;2023-03-01T15:36:37;28.15;;;16.20;;
9783;SDS011;4931;44.874;-1.092;2023-03-01T15:39:23;25.60;;;15.98;;
9783;SDS011;4931;44.874;-1.092;2023-03-01T15:42:12;27.23;;;16.50;;
9783;SDS011;4931;44.874;-1.092;2023-03-01T15:45:11;27.20;;;14.73;;
9783;SDS011;4931;44.874;-1.092;2023-03-01T15:47:38;26.73;;;16.65;;
9783;SDS011;4931;44.874;-1.092;2023-03-01T15:50:11;31.15;;;17.20;;
9783;SDS011;4931;44.874;-1.092;2023-03-01T15:52:51;30.75;;;17.85;;
9783;SDS011;4931;44.874;-1.092;2023-03-01T15:55:18;28.55;;;17.10;;
9783;SDS011;4931;44.874;-1.092;2023-03-01T15:57:47;27.83;;;16.90;;
9783;SDS011;4931;44.874;-1.092;2023-03-01T16:00:14;32.25;;;18.58;;
9783;SDS011;4931;44.874;-1.092;2023-03-01T16:02:41;32.28;;;17.98;;
9783;SDS011;4931;44.874;-1.092;2023-03-01T16:05:24;31.10;;;19.13;;
9783;SDS011;4931;44.874;-1.092;2023-03-01T16:07:52;35.72;;;18.48;;
9783;SDS011;4931;44.874;-1.092;2023-03-01T16:10:19;31.40;;;18.33;;
9783;SDS011;4931;44.874;-1.092;2023-03-01T16:12:44;31.77;;;18.88;;
9783;SDS011;4931;44.874;-1.092;2023-03-01T16:15:13;32.42;;;18.52;;
9783;SDS011;4931;44.874;-1.092;2023-03-01T16:20:09;35.28;;;18.73;;
9783;SDS011;4931;44.874;-1.092;2023-03-01T16:22:35;36.35;;;18.50;;
9783;SDS011;4931;44.874;-1.092;2023-03-01T16:25:00;30.40;;;18.42;;
9783;SDS011;4931;44.874;-1.092;2023-03-01T16:27:28;34.15;;;18.48;;
9783;SDS011;4931;44.874;-1.092;2023-03-01T16:29:53;32.13;;;19.15;;
9783;SDS011;4931;44.874;-1.092;2023-03-01T16:32:19;36.83;;;19.02;;
9783;SDS011;4931;44.874;-1.092;2023-03-01T16:34:45;32.17;;;18.23;;
9783;SDS011;4931;44.874;-1.092;2023-03-01T16:37:14;33.97;;;19.40;;
9783;SDS011;4931;44.874;-1.092;2023-03-01T16:39:40;33.30;;;17.92;;
9783;SDS011;4931;44.874;-1.092;2023-03-01T16:42:05;35.50;;;18.30;;
9783;SDS011;4931;44.874;-1.092;2023-03-01T16:44:31;32.42;;;17.95;;
9783;SDS011;4931;44.874;-1.092;2023-03-01T16:46:56;34.70;;;18.60;;
9783;SDS011;4931;44.874;-1.092;2023-03-01T16:49:22;35.15;;;18.88;;